sensor_id;sensor_type;location;lat;lon;timestamp;P1;durP1;ratioP1;P2;durP2;ratioP2
44508;SDS011;30214;52.246;14.408;2023-08-31T00:01:17;4.85;;;1.92;;
44508;SDS011;30214;52.246;14.408;2023-08-31T00:03:45;6.40;;;1.92;;
44508;SDS011;30214;52.246;14.408;2023-08-31T00:06:12;11.07;;;2.22;;
44508;SDS011;30214;52.246;14.408;2023-08-31T00:08:40;6.55;;;2.20;;
44508;SDS011;30214;52.246;14.408;2023-08-31T00:11:07;4.10;;;1.88;;
44508;SDS011;30214;52.246;14.408;2023-08-31T00:13:36;10.55;;;2.40;;
44508;SDS011;30214;52.246;14.408;2023-08-31T00:16:06;6.00;;;2.10;;
44508;SDS011;30214;52.246;14.408;2023-08-31T00:18:38;5.40;;;1.95;;
44508;SDS011;30214;52.246;14.408;2023-08-31T00:21:08;12.30;;;2.50;;
44508;SDS011;30214;52.246;14.408;2023-08-31T00:23:36;6.43;;;2.30;;
44508;SDS011;30214;52.246;14.408;2023-08-31T00:26:05;7.40;;;1.98;;
44508;SDS011;30214;52.246;14.408;2023-08-31T00:28:36;7.13;;;1.70;;
44508;SDS011;30214;52.246;14.408;2023-08-31T00:31:11;8.73;;;2.10;;
44508;SDS011;30214;52.246;14.408;2023-08-31T00:33:38;9.68;;;2.17;;
44508;SDS011;30214;52.246;14.408;2023-08-31T00:36:06;8.90;;;2.10;;
44508;SDS011;30214;52.246;14.408;2023-08-31T00:38:33;9.50;;;3.08;;
44508;SDS011;30214;52.246;14.408;2023-08-31T00:41:01;9.30;;;2.70;;
44508;SDS011;30214;52.246;14.408;2023-08-31T00:43:28;9.88;;;2.25;;
44508;SDS011;30214;52.246;14.408;2023-08-31T00:45:58;14.57;;;2.30;;
44508;SDS011;30214;52.246;14.408;2023-08-31T00:48:25;15.10;;;2.30;;
44508;SDS011;30214;52.246;14.408;2023-08-31T00:50:53;12.73;;;2.33;;
44508;SDS011;30214;52.246;14.408;2023-08-31T00:53:20;8.95;;;2.30;;
44508;SDS011;30214;52.246;14.408;2023-08-31T00:55:48;7.68;;;2.17;;
44508;SDS011;30214;52.246;14.408;2023-08-31T00:58:15;10.45;;;3.17;;
44508;SDS011;30214;52.246;14.408;2023-08-31T01:00:43;8.88;;;2.47;;
44508;SDS011;30214;52.246;14.408;2023-08-31T01:03:19;14.23;;;2.13;;
44508;SDS011;30214;52.246;14.408;2023-08-31T01:05:57;7.00;;;2.03;;
44508;SDS011;30214;52.246;14.408;2023-08-31T01:08:36;10.20;;;2.13;;
44508;SDS011;30214;52.246;14.408;2023-08-31T01:11:12;4.97;;;1.98;;
44508;SDS011;30214;52.246;14.408;2023-08-31T01:13:50;8.60;;;2.13;;
44508;SDS011;30214;52.246;14.408;2023-08-31T01:16:24;8.68;;;2.30;;
44508;SDS011;30214;52.246;14.408;2023-08-31T01:18:53;6.13;;;2.35;;
44508;SDS011;30214;52.246;14.408;2023-08-31T01:21:24;7.25;;;2.53;;
44508;SDS011;30214;52.246;14.408;2023-08-31T01:23:55;11.85;;;2.58;;
44508;SDS011;30214;52.246;14.408;2023-08-31T01:26:24;13.70;;;2.15;;
44508;SDS011;30214;52.246;14.408;2023-08-31T01:28:52;7.53;;;2.47;;
44508;SDS011;30214;52.246;14.408;2023-08-31T01:31:21;7.25;;;2.08;;
44508;SDS011;30214;52.246;14.408;2023-08-31T01:33:48;6.13;;;1.98;;
44508;SDS011;30214;52.246;14.408;2023-08-31T01:36:18;13.45;;;2.42;;
44508;SDS011;30214;52.246;14.408;2023-08-31T01:38:52;7.45;;;2.45;;
44508;SDS011;30214;52.246;14.408;2023-08-31T01:41:25;4.78;;;2.30;;
44508;SDS011;30214;52.246;14.408;2023-08-31T01:43:55;6.30;;;2.42;;
44508;SDS011;30214;52.246;14.408;2023-08-31T01:46:23;5.97;;;2.47;;
44508;SDS011;30214;52.246;14.408;2023-08-31T01:48:51;6.75;;;2.10;;
44508;SDS011;30214;52.246;14.408;2023-08-31T01:51:18;8.93;;;2.33;;
44508;SDS011;30214;52.246;14.408;2023-08-31T01:53:45;10.98;;;2.20;;
44508;SDS011;30214;52.246;14.408;2023-08-31T01:56:14;6.30;;;2.85;;
44508;SDS011;30214;52.246;14.408;2023-08-31T01:58:41;4.80;;;2.42;;
44508;SDS011;30214;52.246;14.408;2023-08-31T02:01:08;9.00;;;2.90;;
44508;SDS011;30214;52.246;14.408;2023-08-31T02:03:38;4.22;;;2.63;;
44508;SDS011;30214;52.246;14.408;2023-08-31T02:06:05;3.20;;;2.40;;
44508;SDS011;30214;52.246;14.408;2023-08-31T02:08:33;6.57;;;2.75;;
44508;SDS011;30214;52.246;14.408;2023-08-31T02:11:00;5.30;;;2.30;;
44508;SDS011;30214;52.246;14.408;2023-08-31T02:13:29;4.55;;;2.58;;
44508;SDS011;30214;52.246;14.408;2023-08-31T02:15:57;6.38;;;2.75;;
44508;SDS011;30214;52.246;14.408;2023-08-31T02:18:26;8.05;;;4.07;;
44508;SDS011;30214;52.246;14.408;2023-08-31T02:20:54;6.70;;;3.20;;
44508;SDS011;30214;52.246;14.408;2023-08-31T02:23:22;5.03;;;3.53;;
44508;SDS011;30214;52.246;14.408;2023-08-31T02:25:49;5.72;;;3.33;;
44508;SDS011;30214;52.246;14.408;2023-08-31T02:28:19;4.60;;;2.85;;
44508;SDS011;30214;52.246;14.408;2023-08-31T02:30:56;5.32;;;3.63;;
44508;SDS011;30214;52.246;14.408;2023-08-31T02:33:24;4.50;;;3.15;;
44508;SDS011;30214;52.246;14.408;2023-08-31T02:35:51;5.50;;;3.65;;
44508;SDS011;30214;52.246;14.408;2023-08-31T02:38:19;5.28;;;3.75;;
44508;SDS011;30214;52.246;14.408;2023-08-31T02:40:46;5.07;;;3.67;;
44508;SDS011;30214;52.246;14.408;2023-08-31T02:43:14;5.68;;;3.50;;
44508;SDS011;30214;52.246;14.408;2023-08-31T02:45:41;5.43;;;3.40;;
44508;SDS011;30214;52.246;14.408;2023-08-31T02:48:09;7.45;;;4.22;;
44508;SDS011;30214;52.246;14.408;2023-08-31T02:50:36;5.22;;;4.40;;
44508;SDS011;30214;52.246;14.408;2023-08-31T02:53:04;6.03;;;3.95;;
44508;SDS011;30214;52.246;14.408;2023-08-31T02:55:32;7.63;;;4.30;;
44508;SDS011;30214;52.246;14.408;2023-08-31T02:58:02;6.32;;;4.65;;
44508;SDS011;30214;52.246;14.408;2023-08-31T03:00:30;13.18;;;4.88;;
44508;SDS011;30214;52.246;14.408;2023-08-31T03:02:59;8.18;;;4.72;;
44508;SDS011;30214;52.246;14.408;2023-08-31T03:05:28;8.50;;;4.88;;
44508;SDS011;30214;52.246;14.408;2023-08-31T03:07:58;6.35;;;4.75;;
44508;SDS011;30214;52.246;14.408;2023-08-31T03:10:26;6.75;;;4.88;;
44508;SDS011;30214;52.246;14.408;2023-08-31T03:12:53;7.93;;;4.65;;
44508;SDS011;30214;52.246;14.408;2023-08-31T03:15:20;7.50;;;5.03;;
44508;SDS011;30214;52.246;14.408;2023-08-31T03:17:49;7.57;;;4.55;;
44508;SDS011;30214;52.246;14.408;2023-08-31T03:20:16;6.35;;;4.85;;
44508;SDS011;30214;52.246;14.408;2023-08-31T03:22:45;8.20;;;4.40;;
44508;SDS011;30214;52.246;14.408;2023-08-31T03:25:13;5.97;;;4.00;;
44508;SDS011;30214;52.246;14.408;2023-08-31T03:27:40;6.50;;;4.15;;
44508;SDS011;30214;52.246;14.408;2023-08-31T03:30:08;6.53;;;3.88;;
44508;SDS011;30214;52.246;14.408;2023-08-31T03:32:36;4.35;;;3.55;;
44508;SDS011;30214;52.246;14.408;2023-08-31T03:35:04;6.82;;;4.00;;
44508;SDS011;30214;52.246;14.408;2023-08-31T03:37:32;7.18;;;3.75;;
44508;SDS011;30214;52.246;14.408;2023-08-31T03:40:01;5.55;;;3.80;;
44508;SDS011;30214;52.246;14.408;2023-08-31T03:42:29;5.10;;;3.63;;
44508;SDS011;30214;52.246;14.408;2023-08-31T03:44:56;5.90;;;3.83;;
44508;SDS011;30214;52.246;14.408;2023-08-31T03:47:23;6.35;;;3.60;;
44508;SDS011;30214;52.246;14.408;2023-08-31T03:49:51;6.60;;;3.85;;
44508;SDS011;30214;52.246;14.408;2023-08-31T03:52:18;8.20;;;3.97;;
44508;SDS011;30214;52.246;14.408;2023-08-31T03:54:47;5.55;;;3.63;;
44508;SDS011;30214;52.246;14.408;2023-08-31T03:57:15;6.28;;;3.50;;
44508;SDS011;30214;52.246;14.408;2023-08-31T03:59:42;6.47;;;3.60;;
44508;SDS011;30214;52.246;14.408;2023-08-31T04:02:10;4.32;;;3.15;;
44508;SDS011;30214;52.246;14.408;2023-08-31T04:04:37;5.65;;;3.13;;
44508;SDS011;30214;52.246;14.408;2023-08-31T04:07:05;5.13;;;3.60;;
44508;SDS011;30214;52.246;14.408;2023-08-31T04:09:32;7.85;;;3.85;;
44508;SDS011;30214;52.246;14.408;2023-08-31T04:11:59;4.78;;;3.70;;
44508;SDS011;30214;52.246;14.408;2023-08-31T04:14:31;6.63;;;3.20;;
44508;SDS011;30214;52.246;14.408;2023-08-31T04:16:58;7.07;;;3.20;;
44508;SDS011;30214;52.246;14.408;2023-08-31T04:19:25;4.97;;;3.20;;
44508;SDS011;30214;52.246;14.408;2023-08-31T04:21:52;4.05;;;2.90;;
44508;SDS011;30214;52.246;14.408;2023-08-31T04:24:19;4.10;;;3.47;;
44508;SDS011;30214;52.246;14.408;2023-08-31T04:26:46;3.42;;;2.75;;
44508;SDS011;30214;52.246;14.408;2023-08-31T04:29:16;3.95;;;3.20;;
44508;SDS011;30214;52.246;14.408;2023-08-31T04:31:44;5.13;;;2.40;;
44508;SDS011;30214;52.246;14.408;2023-08-31T04:34:11;5.55;;;3.00;;
44508;SDS011;30214;52.246;14.408;2023-08-31T04:36:38;4.95;;;3.00;;
44508;SDS011;30214;52.246;14.408;2023-08-31T04:39:05;4.97;;;3.35;;
44508;SDS011;30214;52.246;14.408;2023-08-31T04:41:33;4.28;;;3.13;;
44508;SDS011;30214;52.246;14.408;2023-08-31T04:44:00;4.05;;;3.00;;
44508;SDS011;30214;52.246;14.408;2023-08-31T04:46:27;4.18;;;3.00;;
44508;SDS011;30214;52.246;14.408;2023-08-31T04:48:56;3.70;;;3.00;;
44508;SDS011;30214;52.246;14.408;2023-08-31T04:51:27;6.45;;;2.90;;
44508;SDS011;30214;52.246;14.408;2023-08-31T04:53:55;4.75;;;3.20;;
44508;SDS011;30214;52.246;14.408;2023-08-31T04:56:22;3.45;;;2.72;;
44508;SDS011;30214;52.246;14.408;2023-08-31T04:58:50;4.97;;;2.85;;
44508;SDS011;30214;52.246;14.408;2023-08-31T05:01:16;4.35;;;3.05;;
44508;SDS011;30214;52.246;14.408;2023-08-31T05:03:43;3.55;;;2.60;;
44508;SDS011;30214;52.246;14.408;2023-08-31T05:06:12;4.43;;;2.80;;
44508;SDS011;30214;52.246;14.408;2023-08-31T05:08:39;3.92;;;2.60;;
44508;SDS011;30214;52.246;14.408;2023-08-31T05:11:06;4.05;;;2.85;;
44508;SDS011;30214;52.246;14.408;2023-08-31T05:13:33;3.58;;;3.05;;
44508;SDS011;30214;52.246;14.408;2023-08-31T05:16:00;6.45;;;2.70;;
44508;SDS011;30214;52.246;14.408;2023-08-31T05:18:29;4.55;;;2.78;;
44508;SDS011;30214;52.246;14.408;2023-08-31T05:20:56;4.28;;;2.90;;
44508;SDS011;30214;52.246;14.408;2023-08-31T05:23:24;7.25;;;3.38;;
44508;SDS011;30214;52.246;14.408;2023-08-31T05:25:51;6.03;;;2.70;;
44508;SDS011;30214;52.246;14.408;2023-08-31T05:28:18;4.55;;;2.63;;
44508;SDS011;30214;52.246;14.408;2023-08-31T05:30:48;4.28;;;3.00;;
44508;SDS011;30214;52.246;14.408;2023-08-31T05:33:16;3.78;;;3.00;;
44508;SDS011;30214;52.246;14.408;2023-08-31T05:35:43;5.38;;;3.85;;
44508;SDS011;30214;52.246;14.408;2023-08-31T05:38:10;6.57;;;4.38;;
44508;SDS011;30214;52.246;14.408;2023-08-31T05:40:38;5.50;;;4.35;;
44508;SDS011;30214;52.246;14.408;2023-08-31T05:43:10;4.53;;;3.90;;
44508;SDS011;30214;52.246;14.408;2023-08-31T05:45:37;5.18;;;3.88;;
44508;SDS011;30214;52.246;14.408;2023-08-31T05:48:04;4.97;;;4.18;;
44508;SDS011;30214;52.246;14.408;2023-08-31T05:50:32;6.13;;;3.95;;
44508;SDS011;30214;52.246;14.408;2023-08-31T05:52:59;4.15;;;3.70;;
44508;SDS011;30214;52.246;14.408;2023-08-31T05:55:26;5.43;;;3.78;;
44508;SDS011;30214;52.246;14.408;2023-08-31T05:57:54;5.40;;;3.63;;
44508;SDS011;30214;52.246;14.408;2023-08-31T06:00:21;6.60;;;3.63;;
44508;SDS011;30214;52.246;14.408;2023-08-31T06:02:48;4.63;;;3.33;;
44508;SDS011;30214;52.246;14.408;2023-08-31T06:05:15;7.20;;;3.67;;
44508;SDS011;30214;52.246;14.408;2023-08-31T06:07:42;7.63;;;4.13;;
44508;SDS011;30214;52.246;14.408;2023-08-31T06:10:09;6.00;;;3.47;;
44508;SDS011;30214;52.246;14.408;2023-08-31T06:12:36;4.38;;;3.25;;
44508;SDS011;30214;52.246;14.408;2023-08-31T06:15:05;4.38;;;3.10;;
44508;SDS011;30214;52.246;14.408;2023-08-31T06:17:32;4.68;;;3.33;;
44508;SDS011;30214;52.246;14.408;2023-08-31T06:20:03;4.72;;;3.08;;
44508;SDS011;30214;52.246;14.408;2023-08-31T06:22:31;6.55;;;3.30;;
44508;SDS011;30214;52.246;14.408;2023-08-31T06:24:58;4.70;;;3.65;;
44508;SDS011;30214;52.246;14.408;2023-08-31T06:27:25;6.45;;;3.28;;
44508;SDS011;30214;52.246;14.408;2023-08-31T06:29:52;6.05;;;2.90;;
44508;SDS011;30214;52.246;14.408;2023-08-31T06:32:20;4.00;;;3.20;;
44508;SDS011;30214;52.246;14.408;2023-08-31T06:34:48;5.50;;;3.10;;
44508;SDS011;30214;52.246;14.408;2023-08-31T06:37:15;6.63;;;3.50;;
44508;SDS011;30214;52.246;14.408;2023-08-31T06:39:42;6.32;;;3.00;;
44508;SDS011;30214;52.246;14.408;2023-08-31T06:42:09;3.92;;;2.90;;
44508;SDS011;30214;52.246;14.408;2023-08-31T06:44:37;4.05;;;3.13;;
44508;SDS011;30214;52.246;14.408;2023-08-31T06:47:04;4.10;;;3.08;;
44508;SDS011;30214;52.246;14.408;2023-08-31T06:49:33;6.55;;;3.10;;
44508;SDS011;30214;52.246;14.408;2023-08-31T06:52:00;5.78;;;3.58;;
44508;SDS011;30214;52.246;14.408;2023-08-31T06:54:27;6.22;;;3.38;;
44508;SDS011;30214;52.246;14.408;2023-08-31T06:56:54;6.32;;;2.92;;
44508;SDS011;30214;52.246;14.408;2023-08-31T06:59:21;4.32;;;3.13;;
44508;SDS011;30214;52.246;14.408;2023-08-31T07:01:49;4.80;;;3.00;;
44508;SDS011;30214;52.246;14.408;2023-08-31T07:04:16;5.90;;;3.50;;
44508;SDS011;30214;52.246;14.408;2023-08-31T07:06:44;5.22;;;3.63;;
44508;SDS011;30214;52.246;14.408;2023-08-31T07:09:11;4.93;;;3.70;;
44508;SDS011;30214;52.246;14.408;2023-08-31T07:11:38;6.35;;;3.92;;
44508;SDS011;30214;52.246;14.408;2023-08-31T07:14:05;5.43;;;3.58;;
44508;SDS011;30214;52.246;14.408;2023-08-31T07:16:32;5.55;;;3.53;;
44508;SDS011;30214;52.246;14.408;2023-08-31T07:18:59;4.25;;;3.20;;
44508;SDS011;30214;52.246;14.408;2023-08-31T07:21:26;4.95;;;3.40;;
44508;SDS011;30214;52.246;14.408;2023-08-31T07:23:54;5.25;;;3.28;;
44508;SDS011;30214;52.246;14.408;2023-08-31T07:26:22;5.65;;;3.58;;
44508;SDS011;30214;52.246;14.408;2023-08-31T07:28:49;5.00;;;3.22;;
44508;SDS011;30214;52.246;14.408;2023-08-31T07:31:16;6.30;;;3.20;;
44508;SDS011;30214;52.246;14.408;2023-08-31T07:33:43;5.13;;;2.90;;
44508;SDS011;30214;52.246;14.408;2023-08-31T07:36:09;4.75;;;3.08;;
44508;SDS011;30214;52.246;14.408;2023-08-31T07:38:36;5.57;;;3.05;;
44508;SDS011;30214;52.246;14.408;2023-08-31T07:41:04;4.45;;;2.83;;
44508;SDS011;30214;52.246;14.408;2023-08-31T07:43:34;6.22;;;3.00;;
44508;SDS011;30214;52.246;14.408;2023-08-31T07:46:01;3.70;;;2.85;;
44508;SDS011;30214;52.246;14.408;2023-08-31T07:48:28;7.43;;;3.08;;
44508;SDS011;30214;52.246;14.408;2023-08-31T07:50:55;6.68;;;2.90;;
44508;SDS011;30214;52.246;14.408;2023-08-31T07:53:23;3.83;;;2.72;;
44508;SDS011;30214;52.246;14.408;2023-08-31T07:55:53;5.20;;;3.35;;
44508;SDS011;30214;52.246;14.408;2023-08-31T07:58:22;5.03;;;2.78;;
44508;SDS011;30214;52.246;14.408;2023-08-31T08:00:52;4.70;;;3.35;;
44508;SDS011;30214;52.246;14.408;2023-08-31T08:03:19;7.43;;;4.00;;
44508;SDS011;30214;52.246;14.408;2023-08-31T08:05:46;6.50;;;4.20;;
44508;SDS011;30214;52.246;14.408;2023-08-31T08:08:13;5.80;;;4.00;;
44508;SDS011;30214;52.246;14.408;2023-08-31T08:10:39;6.07;;;4.20;;
44508;SDS011;30214;52.246;14.408;2023-08-31T08:13:08;6.82;;;4.20;;
44508;SDS011;30214;52.246;14.408;2023-08-31T08:15:39;7.22;;;4.03;;
44508;SDS011;30214;52.246;14.408;2023-08-31T08:18:06;6.63;;;3.88;;
44508;SDS011;30214;52.246;14.408;2023-08-31T08:20:33;7.95;;;3.80;;
44508;SDS011;30214;52.246;14.408;2023-08-31T08:23:00;8.00;;;3.70;;
44508;SDS011;30214;52.246;14.408;2023-08-31T08:25:27;5.22;;;3.45;;
44508;SDS011;30214;52.246;14.408;2023-08-31T08:27:53;4.82;;;3.30;;
44508;SDS011;30214;52.246;14.408;2023-08-31T08:30:20;6.13;;;3.28;;
44508;SDS011;30214;52.246;14.408;2023-08-31T08:32:49;7.28;;;3.92;;
44508;SDS011;30214;52.246;14.408;2023-08-31T08:35:15;7.40;;;3.78;;
44508;SDS011;30214;52.246;14.408;2023-08-31T08:37:42;7.57;;;3.90;;
44508;SDS011;30214;52.246;14.408;2023-08-31T08:40:09;9.93;;;4.03;;
44508;SDS011;30214;52.246;14.408;2023-08-31T08:42:38;6.80;;;4.00;;
44508;SDS011;30214;52.246;14.408;2023-08-31T08:45:07;5.05;;;3.30;;
44508;SDS011;30214;52.246;14.408;2023-08-31T08:47:40;7.60;;;3.80;;
44508;SDS011;30214;52.246;14.408;2023-08-31T08:50:10;4.43;;;3.00;;
44508;SDS011;30214;52.246;14.408;2023-08-31T08:52:37;6.30;;;3.30;;
44508;SDS011;30214;52.246;14.408;2023-08-31T08:55:05;6.72;;;3.25;;
44508;SDS011;30214;52.246;14.408;2023-08-31T08:57:33;10.50;;;3.17;;
44508;SDS011;30214;52.246;14.408;2023-08-31T09:00:00;9.15;;;3.20;;
44508;SDS011;30214;52.246;14.408;2023-08-31T09:02:28;4.72;;;3.20;;
44508;SDS011;30214;52.246;14.408;2023-08-31T09:04:55;7.30;;;2.90;;
44508;SDS011;30214;52.246;14.408;2023-08-31T09:07:24;5.07;;;3.30;;
44508;SDS011;30214;52.246;14.408;2023-08-31T09:09:52;7.78;;;3.08;;
44508;SDS011;30214;52.246;14.408;2023-08-31T09:12:21;5.57;;;3.10;;
44508;SDS011;30214;52.246;14.408;2023-08-31T09:14:59;5.90;;;2.58;;
44508;SDS011;30214;52.246;14.408;2023-08-31T09:17:28;5.35;;;2.72;;
44508;SDS011;30214;52.246;14.408;2023-08-31T09:20:05;5.32;;;2.40;;
44508;SDS011;30214;52.246;14.408;2023-08-31T09:22:34;5.28;;;2.15;;
44508;SDS011;30214;52.246;14.408;2023-08-31T09:25:01;4.70;;;2.05;;
44508;SDS011;30214;52.246;14.408;2023-08-31T09:27:28;5.55;;;2.80;;
44508;SDS011;30214;52.246;14.408;2023-08-31T09:29:56;6.43;;;2.70;;
44508;SDS011;30214;52.246;14.408;2023-08-31T09:32:24;5.45;;;2.80;;
44508;SDS011;30214;52.246;14.408;2023-08-31T09:34:51;4.68;;;2.50;;
44508;SDS011;30214;52.246;14.408;2023-08-31T09:37:18;6.15;;;2.90;;
44508;SDS011;30214;52.246;14.408;2023-08-31T09:39:46;6.13;;;2.35;;
44508;SDS011;30214;52.246;14.408;2023-08-31T09:42:13;4.57;;;2.30;;
44508;SDS011;30214;52.246;14.408;2023-08-31T09:44:40;4.18;;;2.20;;
44508;SDS011;30214;52.246;14.408;2023-08-31T09:47:09;8.68;;;2.28;;
44508;SDS011;30214;52.246;14.408;2023-08-31T09:49:36;5.18;;;2.20;;
44508;SDS011;30214;52.246;14.408;2023-08-31T09:52:04;6.22;;;2.20;;
44508;SDS011;30214;52.246;14.408;2023-08-31T09:54:32;7.75;;;2.85;;
44508;SDS011;30214;52.246;14.408;2023-08-31T09:57:03;6.65;;;2.80;;
44508;SDS011;30214;52.246;14.408;2023-08-31T09:59:31;4.80;;;2.38;;
44508;SDS011;30214;52.246;14.408;2023-08-31T10:02:00;4.82;;;2.50;;
44508;SDS011;30214;52.246;14.408;2023-08-31T10:04:29;4.45;;;1.90;;
44508;SDS011;30214;52.246;14.408;2023-08-31T10:06:58;5.53;;;1.65;;
44508;SDS011;30214;52.246;14.408;2023-08-31T10:09:26;5.65;;;1.48;;
44508;SDS011;30214;52.246;14.408;2023-08-31T10:11:54;7.43;;;1.67;;
44508;SDS011;30214;52.246;14.408;2023-08-31T10:14:23;4.18;;;1.80;;
44508;SDS011;30214;52.246;14.408;2023-08-31T10:16:50;3.35;;;1.40;;
44508;SDS011;30214;52.246;14.408;2023-08-31T10:19:18;6.75;;;1.50;;
44508;SDS011;30214;52.246;14.408;2023-08-31T10:21:45;6.60;;;1.20;;
44508;SDS011;30214;52.246;14.408;2023-08-31T10:24:12;4.55;;;1.70;;
44508;SDS011;30214;52.246;14.408;2023-08-31T10:26:39;5.97;;;1.70;;
44508;SDS011;30214;52.246;14.408;2023-08-31T10:29:06;7.03;;;1.67;;
44508;SDS011;30214;52.246;14.408;2023-08-31T10:31:54;7.65;;;1.65;;
44508;SDS011;30214;52.246;14.408;2023-08-31T10:34:33;4.80;;;1.38;;
44508;SDS011;30214;52.246;14.408;2023-08-31T10:37:02;3.50;;;1.10;;
44508;SDS011;30214;52.246;14.408;2023-08-31T10:39:45;5.40;;;1.50;;
44508;SDS011;30214;52.246;14.408;2023-08-31T10:42:12;7.32;;;1.73;;
44508;SDS011;30214;52.246;14.408;2023-08-31T10:44:41;5.75;;;1.48;;
44508;SDS011;30214;52.246;14.408;2023-08-31T10:47:08;3.92;;;1.33;;
44508;SDS011;30214;52.246;14.408;2023-08-31T10:49:35;4.60;;;1.23;;
44508;SDS011;30214;52.246;14.408;2023-08-31T10:52:14;6.05;;;1.70;;
44508;SDS011;30214;52.246;14.408;2023-08-31T10:54:43;4.25;;;1.30;;
44508;SDS011;30214;52.246;14.408;2023-08-31T10:57:12;5.68;;;1.50;;
44508;SDS011;30214;52.246;14.408;2023-08-31T10:59:45;6.70;;;1.25;;
44508;SDS011;30214;52.246;14.408;2023-08-31T11:02:28;4.55;;;1.38;;
44508;SDS011;30214;52.246;14.408;2023-08-31T11:07:28;3.83;;;1.40;;
44508;SDS011;30214;52.246;14.408;2023-08-31T11:10:06;4.53;;;1.15;;
44508;SDS011;30214;52.246;14.408;2023-08-31T11:12:43;6.28;;;1.83;;
44508;SDS011;30214;52.246;14.408;2023-08-31T11:15:13;5.18;;;1.20;;
44508;SDS011;30214;52.246;14.408;2023-08-31T11:17:41;5.55;;;1.38;;
44508;SDS011;30214;52.246;14.408;2023-08-31T11:20:09;7.28;;;1.30;;
44508;SDS011;30214;52.246;14.408;2023-08-31T11:22:40;4.75;;;1.65;;
44508;SDS011;30214;52.246;14.408;2023-08-31T11:29:43;3.00;;;1.20;;
44508;SDS011;30214;52.246;14.408;2023-08-31T11:32:12;3.70;;;1.27;;
44508;SDS011;30214;52.246;14.408;2023-08-31T11:34:40;6.43;;;1.80;;
44508;SDS011;30214;52.246;14.408;2023-08-31T11:37:08;4.03;;;1.23;;
44508;SDS011;30214;52.246;14.408;2023-08-31T11:39:36;3.08;;;1.13;;
44508;SDS011;30214;52.246;14.408;2023-08-31T11:42:05;4.25;;;1.00;;
44508;SDS011;30214;52.246;14.408;2023-08-31T11:44:32;3.70;;;1.40;;
44508;SDS011;30214;52.246;14.408;2023-08-31T11:46:59;4.85;;;1.58;;
44508;SDS011;30214;52.246;14.408;2023-08-31T11:49:28;2.85;;;1.25;;
44508;SDS011;30214;52.246;14.408;2023-08-31T11:51:55;3.75;;;1.20;;
44508;SDS011;30214;52.246;14.408;2023-08-31T11:54:24;2.75;;;1.00;;
44508;SDS011;30214;52.246;14.408;2023-08-31T11:56:51;3.15;;;1.00;;
44508;SDS011;30214;52.246;14.408;2023-08-31T11:59:19;2.97;;;1.10;;
44508;SDS011;30214;52.246;14.408;2023-08-31T12:01:47;5.70;;;1.10;;
44508;SDS011;30214;52.246;14.408;2023-08-31T12:04:15;4.07;;;1.17;;
44508;SDS011;30214;52.246;14.408;2023-08-31T12:06:47;5.28;;;1.08;;
44508;SDS011;30214;52.246;14.408;2023-08-31T12:09:15;4.05;;;1.10;;
44508;SDS011;30214;52.246;14.408;2023-08-31T12:11:48;2.85;;;1.10;;
44508;SDS011;30214;52.246;14.408;2023-08-31T12:14:20;5.85;;;1.23;;
44508;SDS011;30214;52.246;14.408;2023-08-31T12:16:48;4.75;;;1.15;;
44508;SDS011;30214;52.246;14.408;2023-08-31T12:19:15;4.07;;;1.40;;
44508;SDS011;30214;52.246;14.408;2023-08-31T12:21:43;3.88;;;1.30;;
44508;SDS011;30214;52.246;14.408;2023-08-31T12:24:12;3.38;;;1.05;;
44508;SDS011;30214;52.246;14.408;2023-08-31T12:26:42;2.25;;;1.00;;
44508;SDS011;30214;52.246;14.408;2023-08-31T12:29:09;4.22;;;1.15;;
44508;SDS011;30214;52.246;14.408;2023-08-31T12:31:36;5.25;;;1.50;;
44508;SDS011;30214;52.246;14.408;2023-08-31T12:34:02;2.53;;;0.90;;
44508;SDS011;30214;52.246;14.408;2023-08-31T12:36:31;2.53;;;0.88;;
44508;SDS011;30214;52.246;14.408;2023-08-31T12:38:58;2.88;;;1.10;;
44508;SDS011;30214;52.246;14.408;2023-08-31T12:41:28;3.90;;;0.90;;
44508;SDS011;30214;52.246;14.408;2023-08-31T12:43:55;3.15;;;1.15;;
44508;SDS011;30214;52.246;14.408;2023-08-31T12:46:22;2.33;;;1.00;;
44508;SDS011;30214;52.246;14.408;2023-08-31T12:48:49;5.50;;;1.20;;
44508;SDS011;30214;52.246;14.408;2023-08-31T12:51:17;2.33;;;1.00;;
44508;SDS011;30214;52.246;14.408;2023-08-31T12:53:44;2.55;;;0.98;;
44508;SDS011;30214;52.246;14.408;2023-08-31T12:56:11;3.78;;;1.10;;
44508;SDS011;30214;52.246;14.408;2023-08-31T12:58:40;1.92;;;0.90;;
44508;SDS011;30214;52.246;14.408;2023-08-31T13:01:07;2.47;;;1.00;;
44508;SDS011;30214;52.246;14.408;2023-08-31T13:03:34;3.08;;;1.50;;
44508;SDS011;30214;52.246;14.408;2023-08-31T13:06:01;2.40;;;0.98;;
44508;SDS011;30214;52.246;14.408;2023-08-31T13:08:28;3.08;;;1.02;;
44508;SDS011;30214;52.246;14.408;2023-08-31T13:10:55;1.80;;;0.80;;
44508;SDS011;30214;52.246;14.408;2023-08-31T13:13:22;5.53;;;1.17;;
44508;SDS011;30214;52.246;14.408;2023-08-31T13:15:50;2.83;;;1.10;;
44508;SDS011;30214;52.246;14.408;2023-08-31T13:18:17;4.05;;;1.30;;
44508;SDS011;30214;52.246;14.408;2023-08-31T13:20:50;5.72;;;1.20;;
44508;SDS011;30214;52.246;14.408;2023-08-31T13:23:17;2.65;;;1.20;;
44508;SDS011;30214;52.246;14.408;2023-08-31T13:25:44;4.63;;;1.40;;
44508;SDS011;30214;52.246;14.408;2023-08-31T13:28:11;5.07;;;1.38;;
44508;SDS011;30214;52.246;14.408;2023-08-31T13:30:38;3.25;;;1.30;;
44508;SDS011;30214;52.246;14.408;2023-08-31T13:33:07;2.45;;;1.17;;
44508;SDS011;30214;52.246;14.408;2023-08-31T13:35:34;4.15;;;1.45;;
44508;SDS011;30214;52.246;14.408;2023-08-31T13:38:01;2.40;;;1.27;;
44508;SDS011;30214;52.246;14.408;2023-08-31T13:40:28;6.65;;;1.70;;
44508;SDS011;30214;52.246;14.408;2023-08-31T13:42:55;4.57;;;1.60;;
44508;SDS011;30214;52.246;14.408;2023-08-31T13:45:26;3.45;;;1.60;;
44508;SDS011;30214;52.246;14.408;2023-08-31T13:47:53;3.00;;;1.30;;
44508;SDS011;30214;52.246;14.408;2023-08-31T13:50:21;6.18;;;1.45;;
44508;SDS011;30214;52.246;14.408;2023-08-31T13:52:48;5.97;;;1.48;;
44508;SDS011;30214;52.246;14.408;2023-08-31T13:55:15;3.05;;;1.50;;
44508;SDS011;30214;52.246;14.408;2023-08-31T13:57:42;2.78;;;1.58;;
44508;SDS011;30214;52.246;14.408;2023-08-31T14:00:10;5.28;;;1.73;;
44508;SDS011;30214;52.246;14.408;2023-08-31T14:02:38;5.10;;;1.63;;
44508;SDS011;30214;52.246;14.408;2023-08-31T14:05:06;5.35;;;1.50;;
44508;SDS011;30214;52.246;14.408;2023-08-31T14:07:35;3.13;;;1.50;;
44508;SDS011;30214;52.246;14.408;2023-08-31T14:10:06;4.20;;;1.52;;
44508;SDS011;30214;52.246;14.408;2023-08-31T14:12:34;3.45;;;1.90;;
44508;SDS011;30214;52.246;14.408;2023-08-31T14:15:01;3.00;;;1.55;;
44508;SDS011;30214;52.246;14.408;2023-08-31T14:17:29;4.03;;;1.48;;
44508;SDS011;30214;52.246;14.408;2023-08-31T14:19:58;3.78;;;1.60;;
44508;SDS011;30214;52.246;14.408;2023-08-31T14:22:25;3.08;;;1.52;;
44508;SDS011;30214;52.246;14.408;2023-08-31T14:24:54;3.47;;;1.50;;
44508;SDS011;30214;52.246;14.408;2023-08-31T14:27:21;4.75;;;1.58;;
44508;SDS011;30214;52.246;14.408;2023-08-31T14:29:49;4.95;;;1.60;;
44508;SDS011;30214;52.246;14.408;2023-08-31T14:32:16;5.68;;;1.55;;
44508;SDS011;30214;52.246;14.408;2023-08-31T14:34:43;5.32;;;1.80;;
44508;SDS011;30214;52.246;14.408;2023-08-31T14:37:09;3.17;;;1.40;;
44508;SDS011;30214;52.246;14.408;2023-08-31T14:39:36;3.38;;;1.30;;
44508;SDS011;30214;52.246;14.408;2023-08-31T14:42:05;3.47;;;1.45;;
44508;SDS011;30214;52.246;14.408;2023-08-31T14:44:32;3.45;;;1.67;;
44508;SDS011;30214;52.246;14.408;2023-08-31T14:46:59;2.97;;;1.23;;